Time;durP1;ratioP1;P1;durP2;ratioP2;P2;SDS_P1;SDS_P2;PMS_P1;PMS_P2;Temp;Humidity;BMP_temperature;BMP_pressure;BME280_temperature;BME280_humidity;BME280_pressure;Samples;Min_cycle;Max_cycle;Signal;HPM_P1;HPM_P2
2022/12/23 00:00:26;;;;;;;0.20;0.20;;;8.40;99.90;;;;;;5035687;28;20537;-74
2022/12/23 00:02:53;;;;;;;1.80;0.30;;;8.40;99.90;;;;;;5049167;28;20441;-74
2022/12/23 00:05:20;;;;;;;0.20;0.20;;;8.40;99.90;;;;;;5035338;28;20430;-74
2022/12/23 00:07:46;;;;;;;1.35;0.40;;;8.40;99.90;;;;;;5046357;28;21391;-74
2022/12/23 00:10:14;;;;;;;0.30;0.30;;;8.40;99.90;;;;;;5041883;28;20476;-74
2022/12/23 00:15:26;;;;;;;0.68;0.55;;;8.40;99.90;;;;;;5047848;28;20422;-73
2022/12/23 00:17:53;;;;;;;0.68;0.43;;;8.50;99.90;;;;;;5044691;28;20433;-73
2022/12/23 00:20:20;;;;;;;0.20;0.20;;;8.50;99.90;;;;;;5048569;28;20425;-74
2022/12/23 00:23:06;;;;;;;0.50;0.50;;;8.40;99.90;;;;;;5049868;28;20520;-74
2022/12/23 00:25:43;;;;;;;0.40;0.40;;;8.40;99.90;;;;;;5047146;28;20429;-74
2022/12/23 00:28:16;;;;;;;0.20;0.20;;;8.50;99.90;;;;;;5048307;28;20457;-74
2022/12/23 00:30:51;;;;;;;0.30;0.30;;;8.50;99.90;;;;;;5040103;28;20996;-74
2022/12/23 00:33:24;;;;;;;1.23;0.55;;;8.40;99.90;;;;;;5052472;28;20435;-74
2022/12/23 00:35:51;;;;;;;0.30;0.30;;;8.50;99.90;;;;;;5042235;28;20433;-74
2022/12/23 00:44:00;;;;;;;0.20;0.20;;;8.50;99.90;;;;;;5036260;28;20441;-74
2022/12/23 00:46:27;;;;;;;0.45;0.45;;;8.50;99.90;;;;;;5040749;28;20433;-74
2022/12/23 00:51:42;;;;;;;0.35;0.28;;;8.50;99.90;;;;;;5045746;28;20488;-74
2022/12/23 00:54:09;;;;;;;0.38;0.38;;;8.60;99.90;;;;;;5050905;28;20430;-74
2022/12/23 00:56:35;;;;;;;0.10;0.10;;;8.50;99.90;;;;;;5047998;28;20435;-74
2022/12/23 00:59:03;;;;;;;0.20;0.20;;;8.50;99.90;;;;;;5046865;28;20429;-74
2022/12/23 01:07:02;;;;;;;0.10;0.10;;;8.50;99.90;;;;;;5048602;28;20545;-73
2022/12/23 01:09:33;;;;;;;0.10;0.10;;;8.50;99.90;;;;;;5045617;28;20425;-73
2022/12/23 01:12:00;;;;;;;0.20;0.20;;;8.50;99.90;;;;;;5040809;28;20441;-73
2022/12/23 01:14:29;;;;;;;0.90;0.32;;;8.50;99.90;;;;;;5044492;28;20930;-73
2022/12/23 01:16:56;;;;;;;0.85;0.30;;;8.50;99.90;;;;;;5045966;28;20426;-74
2022/12/23 01:19:23;;;;;;;0.10;0.10;;;8.50;99.90;;;;;;5042768;28;20957;-74
2022/12/23 01:21:52;;;;;;;0.20;0.20;;;8.50;99.90;;;;;;5031667;28;20805;-73
2022/12/23 01:24:19;;;;;;;0.80;0.20;;;8.50;99.90;;;;;;5041343;28;20915;-73
2022/12/23 01:26:46;;;;;;;0.40;0.20;;;8.50;99.90;;;;;;5040642;28;20437;-73
2022/12/23 01:29:13;;;;;;;0.20;0.20;;;8.50;99.90;;;;;;5045500;28;20432;-73
2022/12/23 01:31:39;;;;;;;0.20;0.20;;;8.50;99.90;;;;;;5049174;28;20451;-73
2022/12/23 01:34:09;;;;;;;0.30;0.30;;;8.50;99.90;;;;;;5048397;28;20472;-73
2022/12/23 01:36:36;;;;;;;0.20;0.20;;;8.50;99.90;;;;;;5058426;28;20528;-73
2022/12/23 01:39:05;;;;;;;0.20;0.20;;;8.50;99.90;;;;;;5048972;28;20942;-73
2022/12/23 01:44:46;;;;;;;0.45;0.45;;;8.40;99.90;;;;;;5043587;28;20433;-73
2022/12/23 01:47:19;;;;;;;0.50;0.10;;;8.40;99.90;;;;;;5030172;28;20439;-73
2022/12/23 01:49:47;;;;;;;0.30;0.30;;;8.40;99.90;;;;;;5039183;28;20436;-73
2022/12/23 01:52:14;;;;;;;0.28;0.28;;;8.40;99.90;;;;;;5041800;28;20433;-73
2022/12/23 01:54:42;;;;;;;0.40;0.40;;;8.40;99.90;;;;;;5041781;28;20868;-74
2022/12/23 01:57:09;;;;;;;0.30;0.30;;;8.40;99.90;;;;;;5027010;28;20522;-74
2022/12/23 02:05:13;;;;;;;0.40;0.40;;;8.40;99.90;;;;;;5049111;28;20851;-74
2022/12/23 02:10:38;;;;;;;0.80;0.50;;;8.40;99.90;;;;;;5043500;28;20432;-74
2022/12/23 02:13:20;;;;;;;0.60;0.60;;;8.50;99.90;;;;;;5047091;28;20470;-74
2022/12/23 02:18:40;;;;;;;0.82;0.50;;;8.50;99.90;;;;;;5053754;28;20436;-74
2022/12/23 02:21:25;;;;;;;0.38;0.38;;;8.60;99.90;;;;;;5049321;28;20429;-73
2022/12/23 02:24:23;;;;;;;0.75;0.60;;;8.60;99.90;;;;;;5044850;28;20444;-74
2022/12/23 02:27:12;;;;;;;0.25;0.25;;;8.60;99.90;;;;;;5055039;28;20434;-74
2022/12/23 02:29:51;;;;;;;0.28;0.28;;;8.60;99.90;;;;;;5049823;28;21024;-74
2022/12/23 02:32:40;;;;;;;0.70;0.37;;;8.50;99.90;;;;;;5044203;28;20444;-75
2022/12/23 02:35:26;;;;;;;0.67;0.43;;;8.50;99.90;;;;;;5056624;28;20446;-75
2022/12/23 02:38:23;;;;;;;0.98;0.43;;;8.40;99.90;;;;;;5039083;28;20440;-75
2022/12/23 02:41:31;;;;;;;0.45;0.45;;;8.50;99.90;;;;;;5042244;28;20462;-75
2022/12/23 02:44:11;;;;;;;0.82;0.38;;;8.50;99.90;;;;;;5048071;28;20518;-76
2022/12/23 02:47:04;;;;;;;0.40;0.40;;;8.50;99.90;;;;;;5044887;28;21003;-75
2022/12/23 02:49:41;;;;;;;0.40;0.30;;;8.50;99.90;;;;;;5038292;28;20429;-75
2022/12/23 02:52:13;;;;;;;0.35;0.35;;;8.40;99.90;;;;;;5050153;28;20769;-75
2022/12/23 02:54:45;;;;;;;0.38;0.38;;;8.30;99.90;;;;;;5056597;28;20433;-75
2022/12/23 02:57:15;;;;;;;0.38;0.38;;;8.30;99.90;;;;;;5049558;28;20797;-75
2022/12/23 02:59:50;;;;;;;2.60;0.30;;;8.20;99.90;;;;;;5043178;28;20429;-75
2022/12/23 03:02:17;;;;;;;0.50;0.50;;;8.10;99.90;;;;;;5025767;28;20455;-76
2022/12/23 03:04:44;;;;;;;1.02;0.60;;;8.00;99.90;;;;;;5041212;28;20433;-76
2022/12/23 03:07:30;;;;;;;0.50;0.50;;;7.90;99.90;;;;;;5041944;28;20778;-76
2022/12/23 03:10:17;;;;;;;1.00;0.50;;;7.90;99.90;;;;;;5039857;28;20442;-76
2022/12/23 03:13:36;;;;;;;0.40;0.40;;;7.80;99.90;;;;;;5053928;28;20525;-76
2022/12/23 03:16:18;;;;;;;0.20;0.20;;;7.80;99.90;;;;;;5012971;28;20508;-76
2022/12/23 03:19:09;;;;;;;0.80;0.50;;;7.80;99.90;;;;;;5050528;28;20448;-76
2022/12/23 03:21:52;;;;;;;0.30;0.30;;;7.80;99.90;;;;;;5054639;28;20433;-76
2022/12/23 03:24:27;;;;;;;0.73;0.65;;;7.80;99.90;;;;;;5026692;28;20431;-76
2022/12/23 03:27:16;;;;;;;0.38;0.38;;;7.80;99.90;;;;;;5036105;28;20437;-76
2022/12/23 03:29:59;;;;;;;0.20;0.20;;;7.80;99.90;;;;;;5045933;28;20444;-76
2022/12/23 03:32:31;;;;;;;0.20;0.20;;;7.70;99.90;;;;;;5029683;28;20429;-76
2022/12/23 03:34:59;;;;;;;0.25;0.20;;;7.70;99.90;;;;;;5022194;28;21016;-76
2022/12/23 03:37:31;;;;;;;0.38;0.38;;;7.60;99.90;;;;;;5037711;28;20431;-76
2022/12/23 03:40:08;;;;;;;0.65;0.50;;;7.50;99.90;;;;;;5041753;28;20428;-76
2022/12/23 03:42:39;;;;;;;0.50;0.50;;;7.50;99.90;;;;;;5048464;28;20440;-76
2022/12/23 03:45:14;;;;;;;0.70;0.40;;;7.40;99.90;;;;;;5046968;28;20532;-76
2022/12/23 03:48:09;;;;;;;0.20;0.20;;;7.40;99.90;;;;;;5042534;28;20418;-76
2022/12/23 03:50:38;;;;;;;0.77;0.40;;;7.10;99.90;;;;;;5040851;28;20485;-76
2022/12/23 03:53:20;;;;;;;0.20;0.20;;;6.90;99.90;;;;;;5047119;28;20439;-76
2022/12/23 03:55:56;;;;;;;0.50;0.50;;;6.90;99.90;;;;;;5043468;28;20429;-76
2022/12/23 03:58:32;;;;;;;0.52;0.52;;;6.80;99.90;;;;;;5032119;28;20428;-76
2022/12/23 04:01:24;;;;;;;0.40;0.40;;;6.60;99.90;;;;;;5044634;28;20798;-76
2022/12/23 04:03:58;;;;;;;0.40;0.40;;;6.50;99.90;;;;;;5049519;28;20429;-76
2022/12/23 04:06:31;;;;;;;0.20;0.20;;;6.50;99.90;;;;;;5048311;28;21029;-76
2022/12/23 04:08:58;;;;;;;0.25;0.25;;;6.50;99.90;;;;;;5051967;28;20452;-76
2022/12/23 04:11:25;;;;;;;0.13;0.13;;;6.40;99.90;;;;;;5029141;28;20503;-76
2022/12/23 04:13:52;;;;;;;0.38;0.38;;;6.40;99.90;;;;;;5056630;28;20484;-77
2022/12/23 04:16:22;;;;;;;0.30;0.30;;;6.40;99.90;;;;;;5046867;28;20478;-76
2022/12/23 04:18:52;;;;;;;0.20;0.20;;;6.30;99.90;;;;;;5032632;28;20915;-77
2022/12/23 04:21:21;;;;;;;0.30;0.30;;;6.20;99.90;;;;;;5039182;28;20472;-77
2022/12/23 04:23:48;;;;;;;0.40;0.40;;;6.10;99.90;;;;;;5050380;28;20433;-77
2022/12/23 04:26:15;;;;;;;0.28;0.28;;;6.10;99.90;;;;;;5044105;28;21036;-79
2022/12/23 04:28:41;;;;;;;0.55;0.55;;;6.10;99.90;;;;;;5034442;28;20590;-77
2022/12/23 04:31:08;;;;;;;0.10;0.10;;;6.00;99.90;;;;;;5051958;28;20433;-77
2022/12/23 04:33:35;;;;;;;0.28;0.28;;;6.00;99.90;;;;;;5042874;28;20506;-77
2022/12/23 04:36:02;;;;;;;0.30;0.30;;;5.90;99.90;;;;;;5041643;28;20442;-78
2022/12/23 04:38:29;;;;;;;0.35;0.35;;;5.90;99.90;;;;;;5050462;28;20488;-78
2022/12/23 04:40:55;;;;;;;0.40;0.40;;;5.80;99.90;;;;;;5042015;28;20487;-78
2022/12/23 04:43:22;;;;;;;0.50;0.40;;;5.80;99.90;;;;;;5052672;28;20467;-78
2022/12/23 04:45:52;;;;;;;0.60;0.20;;;5.80;99.90;;;;;;5044239;28;20436;-78
2022/12/23 04:48:19;;;;;;;0.50;0.30;;;5.80;99.90;;;;;;5045846;28;20461;-78
2022/12/23 04:50:45;;;;;;;0.20;0.20;;;5.70;99.90;;;;;;5045627;28;20440;-78
2022/12/23 04:53:12;;;;;;;0.20;0.20;;;5.60;99.90;;;;;;5050862;28;20437;-78
2022/12/23 04:55:42;;;;;;;0.17;0.17;;;5.60;99.90;;;;;;5051632;28;20429;-78
2022/12/23 04:58:13;;;;;;;0.28;0.28;;;5.60;99.90;;;;;;5049796;28;20508;-78
2022/12/23 05:00:40;;;;;;;0.20;0.20;;;5.50;99.90;;;;;;5044138;28;20437;-78
2022/12/23 05:03:07;;;;;;;0.10;0.10;;;5.50;99.90;;;;;;5046219;28;22084;-78
2022/12/23 05:05:34;;;;;;;0.30;0.30;;;5.40;99.90;;;;;;5056067;28;20512;-78
2022/12/23 05:08:04;;;;;;;0.22;0.22;;;5.20;99.90;;;;;;5050386;28;20432;-77
2022/12/23 05:10:31;;;;;;;0.20;0.20;;;5.00;99.90;;;;;;5050907;28;20440;-78
2022/12/23 05:12:58;;;;;;;0.30;0.30;;;4.90;99.90;;;;;;5024144;28;20464;-78
2022/12/23 05:15:24;;;;;;;0.10;0.10;;;4.90;99.90;;;;;;5045143;28;20433;-78
2022/12/23 05:17:51;;;;;;;0.30;0.30;;;4.90;99.90;;;;;;5056185;28;20419;-78
2022/12/23 05:20:18;;;;;;;0.05;0.05;;;4.90;99.90;;;;;;5055111;28;20433;-78
2022/12/23 05:22:47;;;;;;;0.00;0.00;;;5.00;99.90;;;;;;5050858;28;20990;-79
2022/12/23 05:25:17;;;;;;;0.25;0.25;;;5.00;99.90;;;;;;5049356;28;20422;-79
2022/12/23 05:27:44;;;;;;;0.20;0.20;;;5.00;99.90;;;;;;5046583;28;20465;-78
2022/12/23 05:30:11;;;;;;;1.20;0.30;;;5.10;99.90;;;;;;5028267;28;20435;-79
2022/12/23 05:32:40;;;;;;;0.30;0.30;;;5.30;99.90;;;;;;5051594;28;20982;-79
2022/12/23 05:35:07;;;;;;;0.20;0.20;;;5.40;99.90;;;;;;5050126;28;20426;-79
2022/12/23 05:37:34;;;;;;;0.33;0.33;;;5.40;99.90;;;;;;5051119;28;20429;-78
2022/12/23 05:40:01;;;;;;;0.30;0.30;;;5.30;99.90;;;;;;5053555;28;20433;-79
2022/12/23 05:42:31;;;;;;;0.20;0.20;;;5.30;99.90;;;;;;5044773;28;20426;-79
2022/12/23 05:44:58;;;;;;;0.10;0.10;;;5.30;99.90;;;;;;5052353;28;20439;-79
2022/12/23 05:47:24;;;;;;;0.10;0.10;;;5.40;99.90;;;;;;5033279;28;21038;-79
2022/12/23 05:49:51;;;;;;;0.17;0.17;;;5.40;99.90;;;;;;5050992;28;20437;-80
2022/12/23 05:52:23;;;;;;;0.20;0.20;;;5.60;99.90;;;;;;5050983;28;20456;-80
2022/12/23 05:54:53;;;;;;;0.10;0.10;;;5.60;99.90;;;;;;5054817;28;20844;-80
2022/12/23 05:57:30;;;;;;;0.13;0.13;;;5.70;99.90;;;;;;5059171;28;20425;-80
2022/12/23 05:59:57;;;;;;;0.10;0.10;;;5.80;99.90;;;;;;5058376;28;20620;-80
2022/12/23 06:02:24;;;;;;;0.10;0.10;;;5.90;99.90;;;;;;5043461;28;20425;-79
2022/12/23 06:04:51;;;;;;;0.28;0.25;;;5.90;99.90;;;;;;5041599;28;20439;-80
2022/12/23 06:07:26;;;;;;;0.20;0.20;;;5.90;99.90;;;;;;5039270;28;20448;-80
2022/12/23 06:09:52;;;;;;;0.20;0.20;;;6.00;99.90;;;;;;5050432;28;20800;-80
2022/12/23 06:12:19;;;;;;;0.10;0.10;;;6.10;99.90;;;;;;5047960;28;20512;-81
2022/12/23 06:14:46;;;;;;;0.10;0.10;;;6.20;99.90;;;;;;5050562;28;20800;-81
2022/12/23 06:17:13;;;;;;;0.13;0.13;;;6.20;99.90;;;;;;5044445;28;20435;-81
2022/12/23 06:19:39;;;;;;;0.05;0.05;;;6.30;99.90;;;;;;5036358;28;20431;-81
2022/12/23 06:22:06;;;;;;;0.20;0.20;;;6.40;99.90;;;;;;5049244;28;20425;-81
2022/12/23 06:24:33;;;;;;;0.15;0.15;;;6.40;99.90;;;;;;5025829;28;20442;-81
2022/12/23 06:27:00;;;;;;;0.35;0.35;;;6.40;99.90;;;;;;5029842;28;20532;-81
2022/12/23 06:29:26;;;;;;;0.43;0.30;;;6.30;99.90;;;;;;5050331;28;20433;-82
2022/12/23 06:31:53;;;;;;;0.10;0.10;;;6.20;99.90;;;;;;5048987;28;20433;-82
2022/12/23 06:34:20;;;;;;;0.30;0.30;;;6.00;99.90;;;;;;5046479;28;20441;-82
2022/12/23 06:36:47;;;;;;;0.20;0.20;;;5.90;99.90;;;;;;5050406;28;20483;-82
2022/12/23 06:39:14;;;;;;;0.13;0.13;;;5.70;99.90;;;;;;5041919;28;20473;-83
2022/12/23 06:41:41;;;;;;;0.13;0.13;;;5.70;99.90;;;;;;5058181;28;20526;-83
2022/12/23 06:44:08;;;;;;;0.20;0.20;;;5.80;99.90;;;;;;5044023;28;20444;-82
2022/12/23 06:46:35;;;;;;;0.10;0.10;;;5.90;99.90;;;;;;5054272;28;20922;-83
2022/12/23 06:49:02;;;;;;;0.10;0.10;;;5.90;99.90;;;;;;5056993;28;20435;-83
2022/12/23 06:51:38;;;;;;;0.17;0.17;;;6.00;99.90;;;;;;5061793;28;20433;-83
2022/12/23 06:54:05;;;;;;;0.10;0.10;;;6.00;99.90;;;;;;5053577;28;20974;-83
2022/12/23 06:56:40;;;;;;;0.30;0.20;;;6.00;99.90;;;;;;5041919;28;20423;-83
2022/12/23 06:59:07;;;;;;;0.10;0.10;;;6.00;99.90;;;;;;5054416;28;20881;-83
2022/12/23 07:01:34;;;;;;;0.20;0.20;;;6.00;99.90;;;;;;5052279;28;20465;-83
2022/12/23 07:04:01;;;;;;;0.20;0.20;;;6.00;99.90;;;;;;5053603;28;20433;-82
2022/12/23 07:06:28;;;;;;;0.10;0.10;;;6.00;99.90;;;;;;5052236;28;20433;-82
2022/12/23 07:08:55;;;;;;;0.10;0.10;;;6.00;99.90;;;;;;5048686;28;20439;-83
2022/12/23 07:11:28;;;;;;;0.30;0.30;;;6.00;99.90;;;;;;5051625;28;20518;-83
2022/12/23 07:13:59;;;;;;;0.30;0.30;;;6.10;99.90;;;;;;5055565;28;20476;-83
2022/12/23 07:16:26;;;;;;;0.63;0.63;;;6.20;99.90;;;;;;5024967;28;20468;-83
2022/12/23 07:18:52;;;;;;;1.33;0.40;;;6.30;99.90;;;;;;5037690;28;20437;-83
2022/12/23 07:21:19;;;;;;;1.08;0.93;;;6.40;99.90;;;;;;5041431;28;20914;-83
2022/12/23 07:23:56;;;;;;;0.80;0.20;;;6.50;99.90;;;;;;5049916;28;20433;-82
2022/12/23 07:26:23;;;;;;;0.43;0.43;;;6.50;99.90;;;;;;5046504;28;20435;-82
2022/12/23 07:28:49;;;;;;;0.77;0.57;;;6.60;99.90;;;;;;5053115;28;20918;-84
2022/12/23 07:31:16;;;;;;;0.43;0.43;;;6.70;99.90;;;;;;5035459;28;20457;-85
2022/12/23 07:33:43;;;;;;;0.40;0.20;;;6.70;99.90;;;;;;5051325;28;20433;-83
2022/12/23 07:36:11;;;;;;;0.52;0.45;;;6.80;99.90;;;;;;5046077;28;20709;-84
2022/12/23 07:38:44;;;;;;;0.57;0.57;;;6.80;99.90;;;;;;5047775;28;20525;-80
2022/12/23 07:41:10;;;;;;;0.90;0.47;;;6.80;99.90;;;;;;5051628;28;20491;-84
2022/12/23 07:44:03;;;;;;;0.50;0.50;;;6.90;99.90;;;;;;5045856;28;20441;-84
2022/12/23 07:46:30;;;;;;;0.50;0.40;;;7.00;99.90;;;;;;5045530;28;20437;-84
2022/12/23 07:48:57;;;;;;;0.40;0.40;;;7.00;99.90;;;;;;5029216;28;20920;-84
2022/12/23 07:51:24;;;;;;;0.63;0.63;;;7.10;99.90;;;;;;5027511;28;20430;-83
2022/12/23 07:53:50;;;;;;;0.52;0.52;;;7.10;99.90;;;;;;5045771;28;20437;-85
2022/12/23 07:56:18;;;;;;;0.52;0.28;;;7.10;99.90;;;;;;5040427;28;20933;-84
2022/12/23 07:58:49;;;;;;;0.65;0.65;;;7.10;99.90;;;;;;5043180;28;20516;-84
2022/12/23 08:01:17;;;;;;;1.10;0.40;;;7.10;99.90;;;;;;5039350;28;20429;-84
2022/12/23 08:03:44;;;;;;;0.50;0.50;;;7.10;99.90;;;;;;5043530;28;20816;-84
2022/12/23 08:06:13;;;;;;;0.47;0.47;;;7.10;99.90;;;;;;5048580;28;20481;-84
2022/12/23 08:08:42;;;;;;;0.45;0.45;;;7.00;99.90;;;;;;5048807;28;20812;-83
2022/12/23 08:11:10;;;;;;;0.50;0.50;;;7.10;99.90;;;;;;5037147;28;20463;-83
2022/12/23 08:13:40;;;;;;;0.40;0.40;;;7.10;99.90;;;;;;5044485;28;20520;-84
2022/12/23 08:16:08;;;;;;;0.70;0.50;;;7.10;99.90;;;;;;5047953;28;20987;-83
2022/12/23 08:18:38;;;;;;;0.50;0.50;;;7.20;99.90;;;;;;5046320;28;20443;-83
2022/12/23 08:21:09;;;;;;;0.55;0.50;;;7.30;99.90;;;;;;5048536;28;20432;-83
2022/12/23 08:23:35;;;;;;;0.50;0.50;;;7.30;99.90;;;;;;5041266;28;20437;-82
2022/12/23 08:26:07;;;;;;;0.30;0.30;;;7.40;99.90;;;;;;5046670;28;20435;-82
2022/12/23 08:28:35;;;;;;;0.60;0.60;;;7.40;99.90;;;;;;5044965;28;20433;-82
2022/12/23 08:31:17;;;;;;;0.80;0.20;;;7.50;99.90;;;;;;5045874;28;20435;-82
2022/12/23 08:33:47;;;;;;;0.33;0.33;;;7.60;99.90;;;;;;5037908;28;20465;-81
2022/12/23 08:36:21;;;;;;;0.70;0.50;;;7.70;99.90;;;;;;5068312;28;20423;-82
2022/12/23 08:38:55;;;;;;;0.20;0.20;;;7.70;99.90;;;;;;5047151;28;20439;-81
2022/12/23 08:41:28;;;;;;;0.50;0.30;;;7.70;99.90;;;;;;5060768;28;20437;-81
2022/12/23 08:43:56;;;;;;;0.30;0.30;;;7.80;99.90;;;;;;5049621;28;20460;-81
2022/12/23 08:46:23;;;;;;;0.90;0.60;;;7.80;99.90;;;;;;5030582;28;20433;-81
2022/12/23 08:48:51;;;;;;;0.13;0.13;;;7.90;99.90;;;;;;5046004;28;20806;-82
2022/12/23 08:51:28;;;;;;;0.20;0.20;;;7.90;99.90;;;;;;5050604;28;20433;-81
2022/12/23 08:53:58;;;;;;;0.38;0.38;;;7.90;99.90;;;;;;5042124;28;20442;-81
2022/12/23 08:56:36;;;;;;;0.65;0.45;;;7.90;99.90;;;;;;5045428;28;21127;-81
2022/12/23 08:59:03;;;;;;;0.32;0.32;;;7.90;99.90;;;;;;5046602;28;20454;-78
2022/12/23 09:01:32;;;;;;;0.60;0.40;;;7.90;99.90;;;;;;5050004;28;20474;-77
2022/12/23 09:04:04;;;;;;;0.50;0.50;;;7.90;99.90;;;;;;5040791;28;20435;-78
2022/12/23 09:06:35;;;;;;;0.22;0.20;;;8.00;99.90;;;;;;5031726;28;20510;-78
2022/12/23 09:09:03;;;;;;;0.32;0.32;;;8.00;99.90;;;;;;5063430;28;20439;-77
2022/12/23 09:11:30;;;;;;;0.10;0.10;;;8.10;99.90;;;;;;5054015;28;20427;-78
2022/12/23 09:13:59;;;;;;;0.20;0.20;;;8.20;99.90;;;;;;5041878;28;20436;-78
2022/12/23 09:16:26;;;;;;;0.20;0.20;;;8.30;99.90;;;;;;5031337;28;20425;-77
2022/12/23 09:18:55;;;;;;;0.30;0.30;;;8.20;99.90;;;;;;5048675;28;21093;-77
2022/12/23 09:21:22;;;;;;;2.90;1.60;;;8.30;99.90;;;;;;5042789;28;20471;-76
2022/12/23 09:23:49;;;;;;;0.20;0.20;;;8.20;99.90;;;;;;5056650;28;20434;-81
2022/12/23 09:26:27;;;;;;;0.20;0.20;;;8.20;99.90;;;;;;5054020;28;20505;-76
2022/12/23 09:28:56;;;;;;;0.40;0.40;;;8.30;99.90;;;;;;5046412;28;20441;-75
2022/12/23 09:31:24;;;;;;;0.30;0.30;;;8.40;99.90;;;;;;5042244;28;20436;-73
2022/12/23 09:33:58;;;;;;;0.27;0.27;;;8.50;99.90;;;;;;5045849;28;20484;-74
2022/12/23 09:36:24;;;;;;;0.32;0.32;;;8.50;99.90;;;;;;5028402;28;20425;-75
2022/12/23 09:38:56;;;;;;;0.20;0.20;;;8.60;99.90;;;;;;5030987;28;20429;-74
2022/12/23 09:41:33;;;;;;;0.43;0.43;;;8.70;99.90;;;;;;5054740;28;20426;-77
2022/12/23 09:44:40;;;;;;;0.20;0.20;;;8.90;99.90;;;;;;5035611;28;20432;-75
2022/12/23 09:47:14;;;;;;;0.13;0.13;;;9.00;99.90;;;;;;5040160;28;20438;-75
2022/12/23 09:49:48;;;;;;;0.30;0.30;;;9.20;99.90;;;;;;5038329;28;20761;-73
2022/12/23 09:52:23;;;;;;;0.10;0.10;;;9.20;99.90;;;;;;5029902;28;20435;-74
2022/12/23 09:54:53;;;;;;;0.43;0.43;;;9.30;99.90;;;;;;5038045;28;20423;-74
2022/12/23 09:57:30;;;;;;;0.27;0.27;;;9.40;99.90;;;;;;5042843;28;20427;-75
2022/12/23 10:00:07;;;;;;;0.15;0.15;;;9.50;99.90;;;;;;5047295;28;21166;-74
2022/12/23 10:03:05;;;;;;;0.38;0.30;;;9.50;99.90;;;;;;5054711;28;20761;-75
2022/12/23 10:05:56;;;;;;;0.50;0.50;;;9.40;99.90;;;;;;5045512;28;20429;-75
2022/12/23 10:08:31;;;;;;;0.30;0.30;;;9.20;99.90;;;;;;5045086;28;20780;-74
2022/12/23 10:11:00;;;;;;;0.30;0.30;;;9.10;99.90;;;;;;5045326;28;20816;-76
2022/12/23 10:13:44;;;;;;;4.50;0.20;;;9.10;99.90;;;;;;5039491;28;20433;-74
2022/12/23 10:16:24;;;;;;;0.28;0.28;;;9.00;99.90;;;;;;5045032;28;20514;-75
2022/12/23 10:19:13;;;;;;;0.43;0.20;;;8.90;99.90;;;;;;5040461;28;20433;-74
2022/12/23 10:21:49;;;;;;;0.45;0.25;;;8.90;99.90;;;;;;5045609;28;20435;-74
2022/12/23 10:24:26;;;;;;;0.17;0.17;;;8.80;99.90;;;;;;5046818;28;20483;-74
2022/12/23 10:27:19;;;;;;;0.15;0.15;;;8.90;99.90;;;;;;5050255;28;20493;-74
2022/12/23 10:29:46;;;;;;;0.20;0.20;;;8.80;99.90;;;;;;5060434;28;20864;-74
2022/12/23 10:32:43;;;;;;;0.20;0.20;;;8.80;99.90;;;;;;5047128;28;20427;-74
2022/12/23 10:35:35;;;;;;;0.40;0.40;;;8.80;99.90;;;;;;5050701;28;20439;-74
2022/12/23 10:38:30;;;;;;;0.70;0.20;;;8.80;99.90;;;;;;5044537;28;20493;-75
2022/12/23 10:41:47;;;;;;;0.30;0.30;;;8.80;99.90;;;;;;5029415;28;20430;-75
2022/12/23 10:44:42;;;;;;;0.13;0.13;;;8.80;99.90;;;;;;5024563;28;20449;-79
2022/12/23 10:47:21;;;;;;;0.30;0.30;;;8.70;99.90;;;;;;5054932;28;20493;-79
2022/12/23 10:50:02;;;;;;;0.20;0.20;;;8.80;99.90;;;;;;5030320;28;20425;-80
2022/12/23 10:52:34;;;;;;;0.20;0.20;;;8.80;99.90;;;;;;5048487;28;20514;-80
2022/12/23 10:55:03;;;;;;;0.30;0.30;;;8.80;99.90;;;;;;5037947;28;20451;-79
2022/12/23 10:57:31;;;;;;;0.10;0.10;;;8.80;99.90;;;;;;5048752;28;20444;-79
2022/12/23 10:59:57;;;;;;;4.95;0.52;;;8.80;99.90;;;;;;5047375;28;20433;-79
2022/12/23 11:02:48;;;;;;;0.30;0.30;;;8.90;99.90;;;;;;5063480;28;20433;-79
2022/12/23 11:05:24;;;;;;;0.20;0.20;;;8.90;99.90;;;;;;5044211;28;20431;-79
2022/12/23 11:07:54;;;;;;;0.20;0.20;;;9.00;99.90;;;;;;5041931;28;20434;-79
2022/12/23 11:10:27;;;;;;;0.20;0.20;;;9.00;99.90;;;;;;5045050;28;20434;-79
2022/12/23 11:12:53;;;;;;;0.30;0.30;;;9.00;99.90;;;;;;5060116;28;20470;-78
2022/12/23 11:15:38;;;;;;;0.30;0.30;;;9.10;99.90;;;;;;5041143;28;20431;-78
2022/12/23 11:18:11;;;;;;;0.38;0.38;;;9.10;99.90;;;;;;5047419;28;20508;-79
2022/12/23 11:20:40;;;;;;;0.40;0.40;;;9.10;99.90;;;;;;5047095;28;20461;-79
2022/12/23 11:23:25;;;;;;;0.43;0.43;;;9.10;99.90;;;;;;5045922;28;20443;-78
2022/12/23 11:26:00;;;;;;;0.17;0.17;;;9.10;99.90;;;;;;5049830;28;20433;-78
2022/12/23 11:28:28;;;;;;;0.50;0.50;;;9.10;99.90;;;;;;5054242;28;20429;-78
2022/12/23 11:31:04;;;;;;;0.30;0.30;;;9.10;99.90;;;;;;5049598;28;20863;-78
2022/12/23 11:33:35;;;;;;;0.20;0.20;;;9.10;99.90;;;;;;5045177;28;20429;-78
2022/12/23 11:36:16;;;;;;;2.75;0.45;;;9.10;99.90;;;;;;5052385;28;20436;-78
2022/12/23 11:39:15;;;;;;;0.50;0.50;;;9.10;99.90;;;;;;5028811;28;20444;-77
2022/12/23 11:41:46;;;;;;;0.80;0.40;;;9.10;99.90;;;;;;5039658;28;20438;-71
2022/12/23 11:44:27;;;;;;;0.52;0.52;;;9.10;99.90;;;;;;5046867;28;20447;-78
2022/12/23 11:47:22;;;;;;;0.30;0.30;;;9.10;99.90;;;;;;5045556;28;20469;-78
2022/12/23 11:49:54;;;;;;;0.43;0.43;;;9.10;99.90;;;;;;5065915;28;20431;-79
2022/12/23 11:52:28;;;;;;;0.38;0.38;;;9.10;99.90;;;;;;5041188;28;20504;-79
2022/12/23 11:54:57;;;;;;;0.50;0.50;;;9.20;99.90;;;;;;5047071;28;20437;-78
2022/12/23 11:57:58;;;;;;;0.20;0.20;;;9.30;99.90;;;;;;5032418;28;20747;-78
2022/12/23 12:00:29;;;;;;;0.20;0.20;;;9.30;99.90;;;;;;4971303;28;20442;-78
2022/12/23 12:03:01;;;;;;;0.50;0.50;;;9.30;99.90;;;;;;4985119;28;20509;-78
2022/12/23 12:05:37;;;;;;;0.30;0.30;;;9.30;99.90;;;;;;4984865;28;21016;-78
2022/12/23 12:08:19;;;;;;;0.30;0.30;;;9.30;99.90;;;;;;4989245;28;20440;-78
2022/12/23 12:10:45;;;;;;;3.45;0.82;;;9.30;99.90;;;;;;4995100;28;20923;-78
2022/12/23 12:13:24;;;;;;;0.50;0.40;;;9.40;99.90;;;;;;4992016;28;20478;-78
2022/12/23 12:16:25;;;;;;;0.30;0.30;;;9.40;99.90;;;;;;4980531;28;20440;-78
2022/12/23 12:18:54;;;;;;;0.50;0.50;;;9.40;99.90;;;;;;4976128;28;20466;-79
2022/12/23 12:21:27;;;;;;;0.50;0.35;;;9.40;99.90;;;;;;4997845;28;20426;-78
2022/12/23 12:24:04;;;;;;;0.45;0.45;;;9.30;99.90;;;;;;4989417;28;20465;-79
2022/12/23 12:26:49;;;;;;;2.00;0.30;;;9.30;99.90;;;;;;4987442;28;20540;-79
2022/12/23 12:29:38;;;;;;;1.00;0.40;;;9.30;99.90;;;;;;4995880;28;20955;-79
2022/12/23 12:32:24;;;;;;;0.50;0.50;;;9.30;99.90;;;;;;4971670;28;20473;-80
2022/12/23 12:35:04;;;;;;;0.63;0.40;;;9.30;99.90;;;;;;4990245;28;20433;-81
2022/12/23 12:37:56;;;;;;;0.45;0.45;;;9.30;99.90;;;;;;5022693;28;20954;-80
2022/12/23 12:40:48;;;;;;;1.60;0.43;;;9.30;99.90;;;;;;5046922;28;20440;-81
2022/12/23 12:43:32;;;;;;;0.52;0.52;;;9.40;99.90;;;;;;5042269;28;20433;-82
2022/12/23 12:46:17;;;;;;;0.50;0.50;;;9.50;99.90;;;;;;5045024;28;20443;-82
2022/12/23 12:49:08;;;;;;;0.40;0.40;;;9.50;99.90;;;;;;5047341;28;20446;-81
2022/12/23 12:51:47;;;;;;;0.50;0.50;;;9.50;99.90;;;;;;5042112;28;20800;-81
2022/12/23 12:54:16;;;;;;;0.45;0.45;;;9.60;99.90;;;;;;5030680;28;20433;-81
2022/12/23 12:57:05;;;;;;;0.50;0.50;;;9.50;99.90;;;;;;5040611;28;20431;-82
2022/12/23 12:59:34;;;;;;;0.30;0.30;;;9.60;99.90;;;;;;5042338;28;20456;-82
2022/12/23 13:02:10;;;;;;;0.35;0.35;;;9.60;99.90;;;;;;5019681;28;22244;-82
2022/12/23 13:04:55;;;;;;;0.87;0.60;;;9.60;99.90;;;;;;5041958;28;20424;-82
2022/12/23 13:07:55;;;;;;;0.45;0.45;;;9.60;99.90;;;;;;5053215;28;20901;-81
2022/12/23 13:10:40;;;;;;;0.52;0.50;;;9.60;99.90;;;;;;5030196;28;20999;-81
2022/12/23 13:13:54;;;;;;;0.30;0.30;;;9.60;99.90;;;;;;5038700;28;20430;-81
2022/12/23 13:16:59;;;;;;;0.57;0.57;;;9.60;99.90;;;;;;5003810;28;20433;-81
2022/12/23 13:19:47;;;;;;;0.60;0.60;;;9.50;99.90;;;;;;5028676;28;20982;-80
2022/12/23 13:22:25;;;;;;;0.80;0.45;;;9.50;99.90;;;;;;5031354;28;20606;-80
2022/12/23 13:25:16;;;;;;;0.40;0.40;;;9.60;99.90;;;;;;5038251;28;20430;-80
2022/12/23 13:28:12;;;;;;;0.60;0.60;;;9.60;99.90;;;;;;5044026;28;20431;-79
2022/12/23 13:30:49;;;;;;;0.43;0.43;;;9.60;99.90;;;;;;5051936;28;20540;-79
2022/12/23 13:33:48;;;;;;;0.88;0.82;;;9.50;99.90;;;;;;5031145;28;20427;-78
2022/12/23 13:36:35;;;;;;;0.52;0.52;;;9.60;99.90;;;;;;4994036;28;20475;-77
2022/12/23 13:39:25;;;;;;;1.33;1.05;;;9.60;99.90;;;;;;5041515;28;20450;-77
2022/12/23 13:41:59;;;;;;;0.55;0.47;;;9.60;99.90;;;;;;5031993;28;20539;-77
2022/12/23 13:44:33;;;;;;;0.73;0.73;;;9.70;99.90;;;;;;5048966;28;20435;-77
2022/12/23 13:47:06;;;;;;;0.30;0.30;;;9.60;99.90;;;;;;5049664;28;20440;-77
2022/12/23 13:49:50;;;;;;;0.50;0.50;;;9.70;99.90;;;;;;5040075;28;20513;-77
2022/12/23 13:52:33;;;;;;;0.28;0.28;;;9.70;99.90;;;;;;5040267;28;20463;-76
2022/12/23 13:55:21;;;;;;;0.40;0.40;;;9.70;99.90;;;;;;5042835;28;20446;-76
2022/12/23 13:58:11;;;;;;;0.50;0.50;;;9.80;99.90;;;;;;5051491;28;20420;-76
2022/12/23 14:00:38;;;;;;;0.45;0.45;;;9.80;99.90;;;;;;5046545;28;20437;-76
2022/12/23 14:03:13;;;;;;;0.63;0.63;;;9.80;99.90;;;;;;5045928;28;20468;-77
2022/12/23 14:05:47;;;;;;;3.20;0.80;;;9.80;99.90;;;;;;5055224;28;20433;-76